sensor_id;sensor_type;location;lat;lon;timestamp;P1;P2;P0
74333;PMS5003;62753;40.394;-80.022;2024-02-15T00:00:30;10;9;
74333;PMS5003;62753;40.394;-80.022;2024-02-15T00:02:55;9;9;
74333;PMS5003;62753;40.394;-80.022;2024-02-15T00:05:22;9;7;
74333;PMS5003;62753;40.394;-80.022;2024-02-15T00:07:46;7;7;
74333;PMS5003;62753;40.394;-80.022;2024-02-15T00:10:12;10;7;
74333;PMS5003;62753;40.394;-80.022;2024-02-15T00:12:38;10;9;
74333;PMS5003;62753;40.394;-80.022;2024-02-15T00:15:05;13;11;
74333;PMS5003;62753;40.394;-80.022;2024-02-15T00:17:29;12;9;
74333;PMS5003;62753;40.394;-80.022;2024-02-15T00:19:54;9;9;
74333;PMS5003;62753;40.394;-80.022;2024-02-15T00:22:21;10;9;
74333;PMS5003;62753;40.394;-80.022;2024-02-15T00:24:47;9;9;
74333;PMS5003;62753;40.394;-80.022;2024-02-15T00:27:11;9;9;
74333;PMS5003;62753;40.394;-80.022;2024-02-15T00:29:37;11;7;
74333;PMS5003;62753;40.394;-80.022;2024-02-15T00:32:03;11;11;
74333;PMS5003;62753;40.394;-80.022;2024-02-15T00:34:28;10;10;
74333;PMS5003;62753;40.394;-80.022;2024-02-15T00:36:55;10;10;
74333;PMS5003;62753;40.394;-80.022;2024-02-15T00:39:19;12;10;
74333;PMS5003;62753;40.394;-80.022;2024-02-15T00:41:45;10;9;
74333;PMS5003;62753;40.394;-80.022;2024-02-15T00:44:11;7;7;
74333;PMS5003;62753;40.394;-80.022;2024-02-15T00:46:36;16;11;
74333;PMS5003;62753;40.394;-80.022;2024-02-15T00:49:02;11;10;
74333;PMS5003;62753;40.394;-80.022;2024-02-15T00:51:27;11;10;
74333;PMS5003;62753;40.394;-80.022;2024-02-15T00:53:53;13;13;
74333;PMS5003;62753;40.394;-80.022;2024-02-15T00:56:20;10;10;
74333;PMS5003;62753;40.394;-80.022;2024-02-15T00:58:45;12;11;
74333;PMS5003;62753;40.394;-80.022;2024-02-15T01:01:11;13;10;
74333;PMS5003;62753;40.394;-80.022;2024-02-15T01:03:35;12;11;
74333;PMS5003;62753;40.394;-80.022;2024-02-15T01:06:01;13;11;
74333;PMS5003;62753;40.394;-80.022;2024-02-15T01:08:27;11;10;
74333;PMS5003;62753;40.394;-80.022;2024-02-15T01:10:52;17;12;
74333;PMS5003;62753;40.394;-80.022;2024-02-15T01:13:19;11;10;
74333;PMS5003;62753;40.394;-80.022;2024-02-15T01:15:44;12;11;
74333;PMS5003;62753;40.394;-80.022;2024-02-15T01:18:09;17;13;
74333;PMS5003;62753;40.394;-80.022;2024-02-15T01:20:35;11;11;
74333;PMS5003;62753;40.394;-80.022;2024-02-15T01:23:02;11;11;
74333;PMS5003;62753;40.394;-80.022;2024-02-15T01:25:27;11;10;
74333;PMS5003;62753;40.394;-80.022;2024-02-15T01:27:52;12;11;
74333;PMS5003;62753;40.394;-80.022;2024-02-15T01:30:18;11;10;
74333;PMS5003;62753;40.394;-80.022;2024-02-15T01:32:44;9;9;
74333;PMS5003;62753;40.394;-80.022;2024-02-15T01:35:09;9;9;
74333;PMS5003;62753;40.394;-80.022;2024-02-15T01:37:34;13;12;
74333;PMS5003;62753;40.394;-80.022;2024-02-15T01:40:04;11;11;
74333;PMS5003;62753;40.394;-80.022;2024-02-15T01:42:26;12;12;
74333;PMS5003;62753;40.394;-80.022;2024-02-15T01:44:53;11;11;
74333;PMS5003;62753;40.394;-80.022;2024-02-15T01:47:17;9;9;
74333;PMS5003;62753;40.394;-80.022;2024-02-15T01:49:43;8;8;
74333;PMS5003;62753;40.394;-80.022;2024-02-15T01:52:09;12;11;
74333;PMS5003;62753;40.394;-80.022;2024-02-15T01:54:34;11;11;
74333;PMS5003;62753;40.394;-80.022;2024-02-15T01:57:00;12;11;
74333;PMS5003;62753;40.394;-80.022;2024-02-15T01:59:28;11;11;
74333;PMS5003;62753;40.394;-80.022;2024-02-15T02:01:51;12;12;
74333;PMS5003;62753;40.394;-80.022;2024-02-15T02:04:17;10;10;
74333;PMS5003;62753;40.394;-80.022;2024-02-15T02:06:45;11;11;
74333;PMS5003;62753;40.394;-80.022;2024-02-15T02:09:12;10;9;
74333;PMS5003;62753;40.394;-80.022;2024-02-15T02:11:34;12;11;
74333;PMS5003;62753;40.394;-80.022;2024-02-15T02:14:00;12;12;
74333;PMS5003;62753;40.394;-80.022;2024-02-15T02:16:25;12;11;
74333;PMS5003;62753;40.394;-80.022;2024-02-15T02:18:51;12;12;
74333;PMS5003;62753;40.394;-80.022;2024-02-15T02:21:17;15;13;
74333;PMS5003;62753;40.394;-80.022;2024-02-15T02:23:43;9;9;
74333;PMS5003;62753;40.394;-80.022;2024-02-15T02:26:08;12;11;
74333;PMS5003;62753;40.394;-80.022;2024-02-15T02:28:34;11;8;
74333;PMS5003;62753;40.394;-80.022;2024-02-15T02:30:59;13;12;
74333;PMS5003;62753;40.394;-80.022;2024-02-15T02:33:24;10;9;
74333;PMS5003;62753;40.394;-80.022;2024-02-15T02:35:53;10;9;
74333;PMS5003;62753;40.394;-80.022;2024-02-15T02:38:17;12;12;
74333;PMS5003;62753;40.394;-80.022;2024-02-15T02:40:41;11;10;
74333;PMS5003;62753;40.394;-80.022;2024-02-15T02:43:10;12;11;
74333;PMS5003;62753;40.394;-80.022;2024-02-15T02:45:34;12;12;
74333;PMS5003;62753;40.394;-80.022;2024-02-15T02:48:00;12;12;
74333;PMS5003;62753;40.394;-80.022;2024-02-15T02:50:24;13;13;
74333;PMS5003;62753;40.394;-80.022;2024-02-15T02:52:51;10;10;
74333;PMS5003;62753;40.394;-80.022;2024-02-15T02:55:16;11;10;
74333;PMS5003;62753;40.394;-80.022;2024-02-15T02:57:41;15;12;
74333;PMS5003;62753;40.394;-80.022;2024-02-15T03:00:09;15;12;
74333;PMS5003;62753;40.394;-80.022;2024-02-15T03:02:32;12;11;
74333;PMS5003;62753;40.394;-80.022;2024-02-15T03:04:58;11;11;
74333;PMS5003;62753;40.394;-80.022;2024-02-15T03:07:24;12;12;
74333;PMS5003;62753;40.394;-80.022;2024-02-15T03:09:49;11;10;
74333;PMS5003;62753;40.394;-80.022;2024-02-15T03:12:18;10;10;
74333;PMS5003;62753;40.394;-80.022;2024-02-15T03:14:41;10;9;
74333;PMS5003;62753;40.394;-80.022;2024-02-15T03:17:06;12;11;
74333;PMS5003;62753;40.394;-80.022;2024-02-15T03:19:33;10;9;
74333;PMS5003;62753;40.394;-80.022;2024-02-15T03:21:58;16;14;
74333;PMS5003;62753;40.394;-80.022;2024-02-15T03:24:23;14;11;
74333;PMS5003;62753;40.394;-80.022;2024-02-15T03:26:49;14;11;
74333;PMS5003;62753;40.394;-80.022;2024-02-15T03:29:15;12;11;
74333;PMS5003;62753;40.394;-80.022;2024-02-15T03:31:43;15;14;
74333;PMS5003;62753;40.394;-80.022;2024-02-15T03:34:06;14;12;
74333;PMS5003;62753;40.394;-80.022;2024-02-15T03:36:31;14;11;
74333;PMS5003;62753;40.394;-80.022;2024-02-15T03:38:57;16;12;
74333;PMS5003;62753;40.394;-80.022;2024-02-15T03:41:27;10;9;
74333;PMS5003;62753;40.394;-80.022;2024-02-15T03:43:52;12;11;
74333;PMS5003;62753;40.394;-80.022;2024-02-15T03:46:14;10;10;
74333;PMS5003;62753;40.394;-80.022;2024-02-15T03:48:41;12;11;
74333;PMS5003;62753;40.394;-80.022;2024-02-15T03:51:05;14;14;
74333;PMS5003;62753;40.394;-80.022;2024-02-15T03:53:31;12;11;
74333;PMS5003;62753;40.394;-80.022;2024-02-15T03:55:57;12;10;
74333;PMS5003;62753;40.394;-80.022;2024-02-15T03:58:22;16;12;
74333;PMS5003;62753;40.394;-80.022;2024-02-15T04:00:48;12;11;
74333;PMS5003;62753;40.394;-80.022;2024-02-15T04:03:13;11;10;
74333;PMS5003;62753;40.394;-80.022;2024-02-15T04:05:39;11;10;
74333;PMS5003;62753;40.394;-80.022;2024-02-15T04:08:05;10;9;
74333;PMS5003;62753;40.394;-80.022;2024-02-15T04:10:30;11;9;
74333;PMS5003;62753;40.394;-80.022;2024-02-15T04:12:57;12;10;
74333;PMS5003;62753;40.394;-80.022;2024-02-15T04:15:21;10;9;
74333;PMS5003;62753;40.394;-80.022;2024-02-15T04:17:47;11;10;
74333;PMS5003;62753;40.394;-80.022;2024-02-15T04:20:13;9;9;
74333;PMS5003;62753;40.394;-80.022;2024-02-15T04:22:40;11;10;
74333;PMS5003;62753;40.394;-80.022;2024-02-15T04:25:05;11;10;
74333;PMS5003;62753;40.394;-80.022;2024-02-15T04:27:31;10;9;
74333;PMS5003;62753;40.394;-80.022;2024-02-15T04:29:57;9;8;
74333;PMS5003;62753;40.394;-80.022;2024-02-15T04:32:21;13;12;
74333;PMS5003;62753;40.394;-80.022;2024-02-15T04:34:47;15;11;
74333;PMS5003;62753;40.394;-80.022;2024-02-15T04:37:12;9;9;
74333;PMS5003;62753;40.394;-80.022;2024-02-15T04:39:39;12;10;
74333;PMS5003;62753;40.394;-80.022;2024-02-15T04:42:04;8;8;
74333;PMS5003;62753;40.394;-80.022;2024-02-15T04:44:32;8;7;
74333;PMS5003;62753;40.394;-80.022;2024-02-15T04:46:55;8;8;
74333;PMS5003;62753;40.394;-80.022;2024-02-15T04:49:20;11;11;
74333;PMS5003;62753;40.394;-80.022;2024-02-15T04:51:47;10;10;
74333;PMS5003;62753;40.394;-80.022;2024-02-15T04:54:12;11;10;
74333;PMS5003;62753;40.394;-80.022;2024-02-15T04:56:37;11;10;
74333;PMS5003;62753;40.394;-80.022;2024-02-15T04:59:03;11;11;
74333;PMS5003;62753;40.394;-80.022;2024-02-15T05:01:29;15;12;
74333;PMS5003;62753;40.394;-80.022;2024-02-15T05:03:55;11;9;
74333;PMS5003;62753;40.394;-80.022;2024-02-15T05:06:22;12;11;
74333;PMS5003;62753;40.394;-80.022;2024-02-15T05:08:46;11;10;
74333;PMS5003;62753;40.394;-80.022;2024-02-15T05:11:11;11;10;
74333;PMS5003;62753;40.394;-80.022;2024-02-15T05:13:37;11;11;
74333;PMS5003;62753;40.394;-80.022;2024-02-15T05:16:03;12;11;
74333;PMS5003;62753;40.394;-80.022;2024-02-15T05:18:28;8;8;
74333;PMS5003;62753;40.394;-80.022;2024-02-15T05:20:54;11;10;
74333;PMS5003;62753;40.394;-80.022;2024-02-15T05:23:21;8;8;
74333;PMS5003;62753;40.394;-80.022;2024-02-15T05:25:45;11;10;
74333;PMS5003;62753;40.394;-80.022;2024-02-15T05:28:11;10;9;
74333;PMS5003;62753;40.394;-80.022;2024-02-15T05:30:38;9;8;
74333;PMS5003;62753;40.394;-80.022;2024-02-15T05:33:03;11;10;
74333;PMS5003;62753;40.394;-80.022;2024-02-15T05:35:28;8;8;
74333;PMS5003;62753;40.394;-80.022;2024-02-15T05:37:53;12;9;
74333;PMS5003;62753;40.394;-80.022;2024-02-15T05:40:19;11;10;
74333;PMS5003;62753;40.394;-80.022;2024-02-15T05:42:45;10;10;
74333;PMS5003;62753;40.394;-80.022;2024-02-15T05:47:36;12;11;
74333;PMS5003;62753;40.394;-80.022;2024-02-15T05:50:02;12;11;
74333;PMS5003;62753;40.394;-80.022;2024-02-15T05:52:27;11;10;
74333;PMS5003;62753;40.394;-80.022;2024-02-15T05:54:53;11;10;
74333;PMS5003;62753;40.394;-80.022;2024-02-15T05:57:19;11;10;
74333;PMS5003;62753;40.394;-80.022;2024-02-15T05:59:44;11;11;
74333;PMS5003;62753;40.394;-80.022;2024-02-15T06:02:10;8;7;
74333;PMS5003;62753;40.394;-80.022;2024-02-15T06:04:40;11;9;
74333;PMS5003;62753;40.394;-80.022;2024-02-15T06:07:01;14;12;
74333;PMS5003;62753;40.394;-80.022;2024-02-15T06:09:27;15;14;
74333;PMS5003;62753;40.394;-80.022;2024-02-15T06:11:54;17;11;
74333;PMS5003;62753;40.394;-80.022;2024-02-15T06:14:18;11;10;
74333;PMS5003;62753;40.394;-80.022;2024-02-15T06:16:44;14;11;
74333;PMS5003;62753;40.394;-80.022;2024-02-15T06:19:10;14;11;
74333;PMS5003;62753;40.394;-80.022;2024-02-15T06:21:37;14;11;
74333;PMS5003;62753;40.394;-80.022;2024-02-15T06:24:06;11;11;
74333;PMS5003;62753;40.394;-80.022;2024-02-15T06:26:28;10;10;
74333;PMS5003;62753;40.394;-80.022;2024-02-15T06:28:52;9;9;
74333;PMS5003;62753;40.394;-80.022;2024-02-15T06:31:19;9;9;
74333;PMS5003;62753;40.394;-80.022;2024-02-15T06:33:43;10;10;
74333;PMS5003;62753;40.394;-80.022;2024-02-15T06:36:09;16;11;
74333;PMS5003;62753;40.394;-80.022;2024-02-15T06:38:35;11;10;
74333;PMS5003;62753;40.394;-80.022;2024-02-15T06:41:00;11;10;
74333;PMS5003;62753;40.394;-80.022;2024-02-15T06:43:28;12;12;
74333;PMS5003;62753;40.394;-80.022;2024-02-15T06:45:52;13;13;
74333;PMS5003;62753;40.394;-80.022;2024-02-15T06:48:17;10;8;
74333;PMS5003;62753;40.394;-80.022;2024-02-15T06:50:43;11;10;
74333;PMS5003;62753;40.394;-80.022;2024-02-15T06:53:09;8;8;
74333;PMS5003;62753;40.394;-80.022;2024-02-15T06:55:37;10;8;
74333;PMS5003;62753;40.394;-80.022;2024-02-15T06:58:02;9;9;
74333;PMS5003;62753;40.394;-80.022;2024-02-15T07:00:28;8;7;
74333;PMS5003;62753;40.394;-80.022;2024-02-15T07:02:53;9;8;
74333;PMS5003;62753;40.394;-80.022;2024-02-15T07:05:17;11;9;
74333;PMS5003;62753;40.394;-80.022;2024-02-15T07:07:43;10;10;
74333;PMS5003;62753;40.394;-80.022;2024-02-15T07:10:09;10;9;
74333;PMS5003;62753;40.394;-80.022;2024-02-15T07:12:35;15;13;
74333;PMS5003;62753;40.394;-80.022;2024-02-15T07:15:02;10;10;
74333;PMS5003;62753;40.394;-80.022;2024-02-15T07:17:26;10;9;
74333;PMS5003;62753;40.394;-80.022;2024-02-15T07:19:52;11;10;
74333;PMS5003;62753;40.394;-80.022;2024-02-15T07:22:17;14;14;
74333;PMS5003;62753;40.394;-80.022;2024-02-15T07:24:44;15;14;
74333;PMS5003;62753;40.394;-80.022;2024-02-15T07:27:09;15;14;
74333;PMS5003;62753;40.394;-80.022;2024-02-15T07:29:34;15;14;
74333;PMS5003;62753;40.394;-80.022;2024-02-15T07:32:00;15;14;
74333;PMS5003;62753;40.394;-80.022;2024-02-15T07:34:27;18;15;
74333;PMS5003;62753;40.394;-80.022;2024-02-15T07:36:51;25;15;
74333;PMS5003;62753;40.394;-80.022;2024-02-15T07:39:16;14;14;
74333;PMS5003;62753;40.394;-80.022;2024-02-15T07:41:41;15;12;
74333;PMS5003;62753;40.394;-80.022;2024-02-15T07:44:09;19;13;
74333;PMS5003;62753;40.394;-80.022;2024-02-15T07:46:32;12;12;
74333;PMS5003;62753;40.394;-80.022;2024-02-15T07:49:01;14;13;
74333;PMS5003;62753;40.394;-80.022;2024-02-15T07:51:24;14;13;
74333;PMS5003;62753;40.394;-80.022;2024-02-15T07:53:51;14;14;
74333;PMS5003;62753;40.394;-80.022;2024-02-15T07:56:16;15;13;
74333;PMS5003;62753;40.394;-80.022;2024-02-15T07:58:41;14;12;
74333;PMS5003;62753;40.394;-80.022;2024-02-15T08:01:08;13;13;
74333;PMS5003;62753;40.394;-80.022;2024-02-15T08:03:32;24;14;
74333;PMS5003;62753;40.394;-80.022;2024-02-15T08:05:58;18;14;
74333;PMS5003;62753;40.394;-80.022;2024-02-15T08:08:24;19;15;
74333;PMS5003;62753;40.394;-80.022;2024-02-15T08:10:49;12;11;
74333;PMS5003;62753;40.394;-80.022;2024-02-15T08:13:15;20;13;
74333;PMS5003;62753;40.394;-80.022;2024-02-15T08:15:42;17;12;
74333;PMS5003;62753;40.394;-80.022;2024-02-15T08:18:06;13;10;
74333;PMS5003;62753;40.394;-80.022;2024-02-15T08:20:31;13;13;
74333;PMS5003;62753;40.394;-80.022;2024-02-15T08:23:00;15;13;
74333;PMS5003;62753;40.394;-80.022;2024-02-15T08:25:22;14;11;
74333;PMS5003;62753;40.394;-80.022;2024-02-15T08:27:48;17;12;
74333;PMS5003;62753;40.394;-80.022;2024-02-15T08:30:14;13;12;
74333;PMS5003;62753;40.394;-80.022;2024-02-15T08:32:40;13;12;
74333;PMS5003;62753;40.394;-80.022;2024-02-15T08:35:07;13;11;
74333;PMS5003;62753;40.394;-80.022;2024-02-15T08:37:31;14;12;
74333;PMS5003;62753;40.394;-80.022;2024-02-15T08:39:58;11;11;
74333;PMS5003;62753;40.394;-80.022;2024-02-15T08:42:22;12;11;
74333;PMS5003;62753;40.394;-80.022;2024-02-15T08:44:49;13;13;
74333;PMS5003;62753;40.394;-80.022;2024-02-15T08:47:14;13;13;
74333;PMS5003;62753;40.394;-80.022;2024-02-15T08:49:41;17;13;
74333;PMS5003;62753;40.394;-80.022;2024-02-15T08:52:07;19;14;
74333;PMS5003;62753;40.394;-80.022;2024-02-15T08:54:31;13;13;
74333;PMS5003;62753;40.394;-80.022;2024-02-15T08:56:57;15;11;
74333;PMS5003;62753;40.394;-80.022;2024-02-15T08:59:22;18;13;
74333;PMS5003;62753;40.394;-80.022;2024-02-15T09:01:49;18;16;
74333;PMS5003;62753;40.394;-80.022;2024-02-15T09:04:13;22;17;
74333;PMS5003;62753;40.394;-80.022;2024-02-15T09:06:38;14;13;
74333;PMS5003;62753;40.394;-80.022;2024-02-15T09:09:04;22;16;
74333;PMS5003;62753;40.394;-80.022;2024-02-15T09:11:30;24;18;
74333;PMS5003;62753;40.394;-80.022;2024-02-15T09:13:55;22;18;
74333;PMS5003;62753;40.394;-80.022;2024-02-15T09:16:22;21;17;
74333;PMS5003;62753;40.394;-80.022;2024-02-15T09:18:48;24;19;
74333;PMS5003;62753;40.394;-80.022;2024-02-15T09:21:13;28;19;
74333;PMS5003;62753;40.394;-80.022;2024-02-15T09:23:38;24;21;
74333;PMS5003;62753;40.394;-80.022;2024-02-15T09:26:03;32;23;
74333;PMS5003;62753;40.394;-80.022;2024-02-15T09:28:29;35;25;
74333;PMS5003;62753;40.394;-80.022;2024-02-15T09:30:55;27;24;
74333;PMS5003;62753;40.394;-80.022;2024-02-15T09:33:21;23;22;
74333;PMS5003;62753;40.394;-80.022;2024-02-15T09:35:45;25;22;
74333;PMS5003;62753;40.394;-80.022;2024-02-15T09:38:11;24;21;
74333;PMS5003;62753;40.394;-80.022;2024-02-15T09:40:37;21;18;
74333;PMS5003;62753;40.394;-80.022;2024-02-15T09:43:03;22;21;
74333;PMS5003;62753;40.394;-80.022;2024-02-15T09:45:28;14;14;
74333;PMS5003;62753;40.394;-80.022;2024-02-15T09:47:53;21;16;
74333;PMS5003;62753;40.394;-80.022;2024-02-15T09:50:20;21;14;
74333;PMS5003;62753;40.394;-80.022;2024-02-15T09:52:49;18;13;
74333;PMS5003;62753;40.394;-80.022;2024-02-15T09:55:11;16;13;
74333;PMS5003;62753;40.394;-80.022;2024-02-15T09:57:36;14;14;
74333;PMS5003;62753;40.394;-80.022;2024-02-15T10:00:02;18;14;
74333;PMS5003;62753;40.394;-80.022;2024-02-15T10:02:28;28;20;
74333;PMS5003;62753;40.394;-80.022;2024-02-15T10:04:53;32;25;
74333;PMS5003;62753;40.394;-80.022;2024-02-15T10:07:18;33;29;
74333;PMS5003;62753;40.394;-80.022;2024-02-15T10:09:44;39;30;
74333;PMS5003;62753;40.394;-80.022;2024-02-15T10:12:10;45;32;
74333;PMS5003;62753;40.394;-80.022;2024-02-15T10:14:35;41;32;
74333;PMS5003;62753;40.394;-80.022;2024-02-15T10:17:06;40;30;
74333;PMS5003;62753;40.394;-80.022;2024-02-15T10:19:26;29;25;
74333;PMS5003;62753;40.394;-80.022;2024-02-15T10:21:51;34;28;
74333;PMS5003;62753;40.394;-80.022;2024-02-15T10:24:17;40;30;
74333;PMS5003;62753;40.394;-80.022;2024-02-15T10:26:42;33;25;
74333;PMS5003;62753;40.394;-80.022;2024-02-15T10:29:08;33;23;
74333;PMS5003;62753;40.394;-80.022;2024-02-15T10:31:33;30;28;
74333;PMS5003;62753;40.394;-80.022;2024-02-15T10:34:02;31;25;
74333;PMS5003;62753;40.394;-80.022;2024-02-15T10:36:25;33;26;
74333;PMS5003;62753;40.394;-80.022;2024-02-15T10:38:50;33;23;
74333;PMS5003;62753;40.394;-80.022;2024-02-15T10:41:15;29;23;
74333;PMS5003;62753;40.394;-80.022;2024-02-15T10:43:41;24;23;
74333;PMS5003;62753;40.394;-80.022;2024-02-15T10:46:06;25;23;
74333;PMS5003;62753;40.394;-80.022;2024-02-15T10:48:32;28;22;
74333;PMS5003;62753;40.394;-80.022;2024-02-15T10:50:58;25;23;
74333;PMS5003;62753;40.394;-80.022;2024-02-15T10:53:26;25;20;
74333;PMS5003;62753;40.394;-80.022;2024-02-15T10:55:48;24;22;
74333;PMS5003;62753;40.394;-80.022;2024-02-15T10:58:16;28;19;
74333;PMS5003;62753;40.394;-80.022;2024-02-15T11:00:39;23;18;
74333;PMS5003;62753;40.394;-80.022;2024-02-15T11:03:04;30;23;
74333;PMS5003;62753;40.394;-80.022;2024-02-15T11:05:31;23;20;
74333;PMS5003;62753;40.394;-80.022;2024-02-15T11:07:54;25;20;
74333;PMS5003;62753;40.394;-80.022;2024-02-15T11:10:20;22;19;
74333;PMS5003;62753;40.394;-80.022;2024-02-15T11:12:45;29;24;
74333;PMS5003;62753;40.394;-80.022;2024-02-15T11:15:10;24;23;
74333;PMS5003;62753;40.394;-80.022;2024-02-15T11:17:46;20;19;
74333;PMS5003;62753;40.394;-80.022;2024-02-15T11:20:02;27;23;
74333;PMS5003;62753;40.394;-80.022;2024-02-15T11:22:29;34;23;
74333;PMS5003;62753;40.394;-80.022;2024-02-15T11:24:53;30;24;
74333;PMS5003;62753;40.394;-80.022;2024-02-15T11:27:24;23;20;
74333;PMS5003;62753;40.394;-80.022;2024-02-15T11:29:48;31;23;
74333;PMS5003;62753;40.394;-80.022;2024-02-15T11:32:09;28;20;
74333;PMS5003;62753;40.394;-80.022;2024-02-15T11:34:42;33;28;
74333;PMS5003;62753;40.394;-80.022;2024-02-15T11:36:59;27;19;
74333;PMS5003;62753;40.394;-80.022;2024-02-15T11:44:17;30;25;
74333;PMS5003;62753;40.394;-80.022;2024-02-15T11:46:41;23;22;
74333;PMS5003;62753;40.394;-80.022;2024-02-15T11:49:07;29;24;
74333;PMS5003;62753;40.394;-80.022;2024-02-15T11:51:33;32;24;
74333;PMS5003;62753;40.394;-80.022;2024-02-15T11:53:59;34;25;
74333;PMS5003;62753;40.394;-80.022;2024-02-15T11:56:23;35;29;
74333;PMS5003;62753;40.394;-80.022;2024-02-15T12:01:14;45;33;
74333;PMS5003;62753;40.394;-80.022;2024-02-15T12:03:41;49;36;
74333;PMS5003;62753;40.394;-80.022;2024-02-15T12:06:06;37;34;
74333;PMS5003;62753;40.394;-80.022;2024-02-15T12:08:34;59;37;
74333;PMS5003;62753;40.394;-80.022;2024-02-15T12:10:57;49;37;
74333;PMS5003;62753;40.394;-80.022;2024-02-15T12:13:22;38;30;
74333;PMS5003;62753;40.394;-80.022;2024-02-15T12:15:56;38;32;
74333;PMS5003;62753;40.394;-80.022;2024-02-15T12:18:14;41;30;
74333;PMS5003;62753;40.394;-80.022;2024-02-15T12:20:39;37;29;
74333;PMS5003;62753;40.394;-80.022;2024-02-15T12:23:04;36;29;
74333;PMS5003;62753;40.394;-80.022;2024-02-15T12:25:30;29;27;
74333;PMS5003;62753;40.394;-80.022;2024-02-15T12:27:55;21;20;
74333;PMS5003;62753;40.394;-80.022;2024-02-15T12:30:20;25;21;
74333;PMS5003;62753;40.394;-80.022;2024-02-15T12:32:46;24;19;
74333;PMS5003;62753;40.394;-80.022;2024-02-15T12:35:12;19;18;
74333;PMS5003;62753;40.394;-80.022;2024-02-15T12:37:38;16;15;
74333;PMS5003;62753;40.394;-80.022;2024-02-15T12:42:28;16;16;
74333;PMS5003;62753;40.394;-80.022;2024-02-15T12:44:54;19;16;
74333;PMS5003;62753;40.394;-80.022;2024-02-15T12:47:21;21;18;
74333;PMS5003;62753;40.394;-80.022;2024-02-15T12:49:45;16;15;
74333;PMS5003;62753;40.394;-80.022;2024-02-15T12:54:36;15;15;
74333;PMS5003;62753;40.394;-80.022;2024-02-15T12:59:27;19;17;
74333;PMS5003;62753;40.394;-80.022;2024-02-15T13:01:53;13;13;
74333;PMS5003;62753;40.394;-80.022;2024-02-15T13:04:22;17;16;
74333;PMS5003;62753;40.394;-80.022;2024-02-15T13:06:44;19;14;
74333;PMS5003;62753;40.394;-80.022;2024-02-15T13:09:11;15;14;
74333;PMS5003;62753;40.394;-80.022;2024-02-15T13:11:37;19;14;
74333;PMS5003;62753;40.394;-80.022;2024-02-15T13:14:01;20;17;
74333;PMS5003;62753;40.394;-80.022;2024-02-15T13:16:26;15;14;
74333;PMS5003;62753;40.394;-80.022;2024-02-15T13:18:55;22;16;
74333;PMS5003;62753;40.394;-80.022;2024-02-15T13:21:19;16;15;
74333;PMS5003;62753;40.394;-80.022;2024-02-15T13:23:48;16;15;
74333;PMS5003;62753;40.394;-80.022;2024-02-15T13:26:11;15;14;
74333;PMS5003;62753;40.394;-80.022;2024-02-15T13:28:35;20;15;
74333;PMS5003;62753;40.394;-80.022;2024-02-15T13:31:02;15;13;
74333;PMS5003;62753;40.394;-80.022;2024-02-15T13:33:25;21;14;
74333;PMS5003;62753;40.394;-80.022;2024-02-15T13:35:54;20;16;
74333;PMS5003;62753;40.394;-80.022;2024-02-15T13:38:17;16;14;
74333;PMS5003;62753;40.394;-80.022;2024-02-15T13:40:44;18;17;
74333;PMS5003;62753;40.394;-80.022;2024-02-15T13:43:10;14;12;
74333;PMS5003;62753;40.394;-80.022;2024-02-15T13:45:38;17;14;
74333;PMS5003;62753;40.394;-80.022;2024-02-15T13:47:59;21;14;
74333;PMS5003;62753;40.394;-80.022;2024-02-15T13:50:24;15;15;
74333;PMS5003;62753;40.394;-80.022;2024-02-15T13:52:50;16;12;
74333;PMS5003;62753;40.394;-80.022;2024-02-15T13:55:16;17;16;
74333;PMS5003;62753;40.394;-80.022;2024-02-15T13:57:43;17;16;
74333;PMS5003;62753;40.394;-80.022;2024-02-15T14:00:07;21;17;
74333;PMS5003;62753;40.394;-80.022;2024-02-15T14:02:33;17;17;
74333;PMS5003;62753;40.394;-80.022;2024-02-15T14:04:58;15;11;
74333;PMS5003;62753;40.394;-80.022;2024-02-15T14:07:24;17;15;
74333;PMS5003;62753;40.394;-80.022;2024-02-15T14:09:50;23;17;
74333;PMS5003;62753;40.394;-80.022;2024-02-15T14:12:16;20;16;
74333;PMS5003;62753;40.394;-80.022;2024-02-15T14:14:40;20;16;
74333;PMS5003;62753;40.394;-80.022;2024-02-15T14:17:05;23;18;
74333;PMS5003;62753;40.394;-80.022;2024-02-15T14:19:31;19;18;
74333;PMS5003;62753;40.394;-80.022;2024-02-15T14:21:58;18;16;
74333;PMS5003;62753;40.394;-80.022;2024-02-15T14:24:22;18;17;
74333;PMS5003;62753;40.394;-80.022;2024-02-15T14:26:48;20;17;
74333;PMS5003;62753;40.394;-80.022;2024-02-15T14:29:13;24;20;
74333;PMS5003;62753;40.394;-80.022;2024-02-15T14:31:39;16;15;
74333;PMS5003;62753;40.394;-80.022;2024-02-15T14:34:04;23;20;
74333;PMS5003;62753;40.394;-80.022;2024-02-15T14:36:29;24;19;
74333;PMS5003;62753;40.394;-80.022;2024-02-15T14:38:55;20;18;
74333;PMS5003;62753;40.394;-80.022;2024-02-15T14:41:20;18;17;
74333;PMS5003;62753;40.394;-80.022;2024-02-15T14:43:45;18;16;
74333;PMS5003;62753;40.394;-80.022;2024-02-15T14:46:13;20;17;
74333;PMS5003;62753;40.394;-80.022;2024-02-15T14:48:37;21;20;
74333;PMS5003;62753;40.394;-80.022;2024-02-15T14:51:02;19;18;
74333;PMS5003;62753;40.394;-80.022;2024-02-15T14:53:29;20;17;
74333;PMS5003;62753;40.394;-80.022;2024-02-15T14:55:53;19;17;
74333;PMS5003;62753;40.394;-80.022;2024-02-15T14:58:20;19;17;
74333;PMS5003;62753;40.394;-80.022;2024-02-15T15:00:46;22;19;
74333;PMS5003;62753;40.394;-80.022;2024-02-15T15:03:11;20;15;
74333;PMS5003;62753;40.394;-80.022;2024-02-15T15:05:35;21;19;
74333;PMS5003;62753;40.394;-80.022;2024-02-15T15:08:02;14;13;
74333;PMS5003;62753;40.394;-80.022;2024-02-15T15:10:26;21;17;
74333;PMS5003;62753;40.394;-80.022;2024-02-15T15:12:51;22;17;
74333;PMS5003;62753;40.394;-80.022;2024-02-15T15:15:16;18;15;
74333;PMS5003;62753;40.394;-80.022;2024-02-15T15:17:42;19;13;
74333;PMS5003;62753;40.394;-80.022;2024-02-15T15:20:09;18;17;
74333;PMS5003;62753;40.394;-80.022;2024-02-15T15:22:33;18;17;
74333;PMS5003;62753;40.394;-80.022;2024-02-15T15:24:58;14;14;
74333;PMS5003;62753;40.394;-80.022;2024-02-15T15:27:25;19;17;
74333;PMS5003;62753;40.394;-80.022;2024-02-15T15:29:49;20;16;
74333;PMS5003;62753;40.394;-80.022;2024-02-15T15:32:15;16;15;
74333;PMS5003;62753;40.394;-80.022;2024-02-15T15:34:42;15;15;
74333;PMS5003;62753;40.394;-80.022;2024-02-15T15:37:06;17;14;
74333;PMS5003;62753;40.394;-80.022;2024-02-15T15:39:31;17;15;
74333;PMS5003;62753;40.394;-80.022;2024-02-15T15:41:56;15;12;
74333;PMS5003;62753;40.394;-80.022;2024-02-15T15:44:23;19;18;
74333;PMS5003;62753;40.394;-80.022;2024-02-15T15:46:47;17;16;
74333;PMS5003;62753;40.394;-80.022;2024-02-15T15:49:13;18;15;
74333;PMS5003;62753;40.394;-80.022;2024-02-15T15:51:41;16;15;
74333;PMS5003;62753;40.394;-80.022;2024-02-15T15:54:04;19;14;